EGEC/CAL METAR and TAF weather

Enter ICAO airport designator
Station Type Date Time Source
EGEC METAR 2021/07/27 17:50 UTC NOAA

EGEC 271750Z 28011KT 9999 FEW018 14/14 Q1006


Station Type Date Time Source
EGEC Decoded METAR 2021/07/27 17:50 UTC NOAA

Campbeltown, United Kingdom (EGEC) 55-26-14N 005-41-11W
Jul 27, 2021 - 01:50 PM EDT / 2021.07.27 1750 UTC
Wind: from the W (280 degrees) at 13 MPH (11 KT):0
Visibility: greater than 7 mile(s):0
Sky conditions: mostly clear
Temperature: 57 F (14 C)
Dew Point: 57 F (14 C)
Relative Humidity: 100%
Pressure (altimeter): 29.71 in. Hg (1006 hPa)
ob: EGEC 271750Z 28011KT 9999 FEW018 14/14 Q1006
cycle: 18

Station Type Date Time Source
EGEC TAF UTC NOAA

Error!

Example: see airport list